sensor_id;sensor_type;location;lat;lon;timestamp;P1;durP1;ratioP1;P2;durP2;ratioP2
6626;SDS011;3349;49.830;8.748;2022-12-18T00:01:57;41.60;;;19.37;;
6626;SDS011;3349;49.830;8.748;2022-12-18T00:04:26;45.93;;;19.17;;
6626;SDS011;3349;49.830;8.748;2022-12-18T00:06:53;44.23;;;19.17;;
6626;SDS011;3349;49.830;8.748;2022-12-18T00:09:20;41.70;;;19.87;;
6626;SDS011;3349;49.830;8.748;2022-12-18T00:11:47;44.83;;;18.93;;
6626;SDS011;3349;49.830;8.748;2022-12-18T00:14:14;45.93;;;19.77;;
6626;SDS011;3349;49.830;8.748;2022-12-18T00:16:42;34.80;;;18.00;;
6626;SDS011;3349;49.830;8.748;2022-12-18T00:19:10;36.50;;;17.73;;
6626;SDS011;3349;49.830;8.748;2022-12-18T00:21:39;37.17;;;17.80;;
6626;SDS011;3349;49.830;8.748;2022-12-18T00:24:06;34.77;;;17.80;;
6626;SDS011;3349;49.830;8.748;2022-12-18T00:26:33;41.70;;;19.10;;
6626;SDS011;3349;49.830;8.748;2022-12-18T00:29:02;39.13;;;19.10;;
6626;SDS011;3349;49.830;8.748;2022-12-18T00:31:31;37.67;;;17.80;;
6626;SDS011;3349;49.830;8.748;2022-12-18T00:33:58;37.10;;;18.87;;
6626;SDS011;3349;49.830;8.748;2022-12-18T00:36:25;33.30;;;17.70;;
6626;SDS011;3349;49.830;8.748;2022-12-18T00:38:54;35.90;;;16.57;;
6626;SDS011;3349;49.830;8.748;2022-12-18T00:41:22;31.80;;;15.63;;
6626;SDS011;3349;49.830;8.748;2022-12-18T00:44:08;37.83;;;18.40;;
6626;SDS011;3349;49.830;8.748;2022-12-18T00:46:36;36.40;;;17.33;;
6626;SDS011;3349;49.830;8.748;2022-12-18T00:49:04;36.50;;;18.07;;
6626;SDS011;3349;49.830;8.748;2022-12-18T00:51:31;34.07;;;16.97;;
6626;SDS011;3349;49.830;8.748;2022-12-18T00:53:59;41.20;;;16.70;;
6626;SDS011;3349;49.830;8.748;2022-12-18T00:56:26;36.53;;;17.00;;
6626;SDS011;3349;49.830;8.748;2022-12-18T00:58:53;39.00;;;16.70;;
6626;SDS011;3349;49.830;8.748;2022-12-18T01:01:19;32.53;;;16.00;;
6626;SDS011;3349;49.830;8.748;2022-12-18T01:03:46;34.30;;;16.90;;
6626;SDS011;3349;49.830;8.748;2022-12-18T01:06:13;40.93;;;18.90;;
6626;SDS011;3349;49.830;8.748;2022-12-18T01:08:41;35.03;;;16.47;;
6626;SDS011;3349;49.830;8.748;2022-12-18T01:11:09;38.97;;;18.17;;
6626;SDS011;3349;49.830;8.748;2022-12-18T01:13:38;37.67;;;17.63;;
6626;SDS011;3349;49.830;8.748;2022-12-18T01:16:05;38.83;;;18.23;;
6626;SDS011;3349;49.830;8.748;2022-12-18T01:18:33;37.23;;;19.57;;
6626;SDS011;3349;49.830;8.748;2022-12-18T01:21:00;44.37;;;20.87;;
6626;SDS011;3349;49.830;8.748;2022-12-18T01:23:31;41.17;;;19.60;;
6626;SDS011;3349;49.830;8.748;2022-12-18T01:25:57;44.23;;;21.53;;
6626;SDS011;3349;49.830;8.748;2022-12-18T01:28:25;43.37;;;19.80;;
6626;SDS011;3349;49.830;8.748;2022-12-18T01:30:52;39.40;;;18.83;;
6626;SDS011;3349;49.830;8.748;2022-12-18T01:33:19;35.90;;;19.07;;
6626;SDS011;3349;49.830;8.748;2022-12-18T01:35:45;41.23;;;20.50;;
6626;SDS011;3349;49.830;8.748;2022-12-18T01:38:12;41.13;;;20.53;;
6626;SDS011;3349;49.830;8.748;2022-12-18T01:40:39;34.87;;;17.67;;
6626;SDS011;3349;49.830;8.748;2022-12-18T01:43:08;34.03;;;17.63;;
6626;SDS011;3349;49.830;8.748;2022-12-18T01:45:37;40.23;;;18.67;;
6626;SDS011;3349;49.830;8.748;2022-12-18T01:48:04;38.20;;;18.73;;
6626;SDS011;3349;49.830;8.748;2022-12-18T01:50:35;44.30;;;21.07;;
6626;SDS011;3349;49.830;8.748;2022-12-18T01:53:06;41.73;;;19.20;;
6626;SDS011;3349;49.830;8.748;2022-12-18T01:55:36;46.77;;;21.10;;
6626;SDS011;3349;49.830;8.748;2022-12-18T01:58:09;41.17;;;20.13;;
6626;SDS011;3349;49.830;8.748;2022-12-18T02:00:37;43.97;;;20.10;;
6626;SDS011;3349;49.830;8.748;2022-12-18T02:03:04;47.47;;;20.67;;
6626;SDS011;3349;49.830;8.748;2022-12-18T02:05:34;39.67;;;19.03;;
6626;SDS011;3349;49.830;8.748;2022-12-18T02:08:08;38.63;;;19.37;;
6626;SDS011;3349;49.830;8.748;2022-12-18T02:10:42;41.10;;;19.60;;
6626;SDS011;3349;49.830;8.748;2022-12-18T02:13:13;41.93;;;20.13;;
6626;SDS011;3349;49.830;8.748;2022-12-18T02:15:49;40.47;;;19.63;;
6626;SDS011;3349;49.830;8.748;2022-12-18T02:18:21;36.37;;;18.80;;
6626;SDS011;3349;49.830;8.748;2022-12-18T02:20:53;39.40;;;18.23;;
6626;SDS011;3349;49.830;8.748;2022-12-18T02:23:31;38.37;;;19.33;;
6626;SDS011;3349;49.830;8.748;2022-12-18T02:26:15;36.53;;;17.30;;
6626;SDS011;3349;49.830;8.748;2022-12-18T02:28:46;41.73;;;18.50;;
6626;SDS011;3349;49.830;8.748;2022-12-18T02:31:19;35.90;;;18.00;;
6626;SDS011;3349;49.830;8.748;2022-12-18T02:33:49;37.20;;;19.03;;
6626;SDS011;3349;49.830;8.748;2022-12-18T02:36:18;41.90;;;19.70;;
6626;SDS011;3349;49.830;8.748;2022-12-18T02:38:47;39.90;;;19.17;;
6626;SDS011;3349;49.830;8.748;2022-12-18T02:41:16;40.57;;;18.70;;
6626;SDS011;3349;49.830;8.748;2022-12-18T02:43:46;41.20;;;19.30;;
6626;SDS011;3349;49.830;8.748;2022-12-18T02:46:25;38.33;;;18.03;;
6626;SDS011;3349;49.830;8.748;2022-12-18T02:48:57;38.13;;;17.43;;
6626;SDS011;3349;49.830;8.748;2022-12-18T02:51:32;38.63;;;19.40;;
6626;SDS011;3349;49.830;8.748;2022-12-18T02:54:06;36.73;;;19.67;;
6626;SDS011;3349;49.830;8.748;2022-12-18T02:56:38;40.60;;;19.73;;
6626;SDS011;3349;49.830;8.748;2022-12-18T02:59:12;38.10;;;18.90;;
6626;SDS011;3349;49.830;8.748;2022-12-18T03:01:46;36.60;;;19.60;;
6626;SDS011;3349;49.830;8.748;2022-12-18T03:04:19;39.87;;;20.50;;
6626;SDS011;3349;49.830;8.748;2022-12-18T03:06:53;37.00;;;19.40;;
6626;SDS011;3349;49.830;8.748;2022-12-18T03:09:24;38.50;;;18.63;;
6626;SDS011;3349;49.830;8.748;2022-12-18T03:11:58;41.07;;;20.00;;
6626;SDS011;3349;49.830;8.748;2022-12-18T03:14:50;43.67;;;19.27;;
6626;SDS011;3349;49.830;8.748;2022-12-18T03:17:22;43.57;;;19.90;;
6626;SDS011;3349;49.830;8.748;2022-12-18T03:19:52;37.50;;;20.27;;
6626;SDS011;3349;49.830;8.748;2022-12-18T03:22:22;42.67;;;20.93;;
6626;SDS011;3349;49.830;8.748;2022-12-18T03:24:53;41.50;;;20.03;;
6626;SDS011;3349;49.830;8.748;2022-12-18T03:27:23;46.50;;;20.70;;
6626;SDS011;3349;49.830;8.748;2022-12-18T03:29:52;39.83;;;19.63;;
6626;SDS011;3349;49.830;8.748;2022-12-18T03:32:32;39.20;;;20.23;;
6626;SDS011;3349;49.830;8.748;2022-12-18T03:35:05;38.13;;;19.83;;
6626;SDS011;3349;49.830;8.748;2022-12-18T03:37:33;37.87;;;19.00;;
6626;SDS011;3349;49.830;8.748;2022-12-18T03:40:00;41.77;;;20.83;;
6626;SDS011;3349;49.830;8.748;2022-12-18T03:42:29;39.73;;;19.73;;
6626;SDS011;3349;49.830;8.748;2022-12-18T03:45:05;45.73;;;21.10;;
6626;SDS011;3349;49.830;8.748;2022-12-18T03:47:37;38.90;;;19.73;;
6626;SDS011;3349;49.830;8.748;2022-12-18T03:50:11;38.47;;;19.77;;
6626;SDS011;3349;49.830;8.748;2022-12-18T03:52:43;39.63;;;21.10;;
6626;SDS011;3349;49.830;8.748;2022-12-18T03:55:14;43.47;;;20.93;;
6626;SDS011;3349;49.830;8.748;2022-12-18T03:57:44;39.50;;;19.77;;
6626;SDS011;3349;49.830;8.748;2022-12-18T04:00:14;44.10;;;19.93;;
6626;SDS011;3349;49.830;8.748;2022-12-18T04:02:43;46.00;;;22.23;;
6626;SDS011;3349;49.830;8.748;2022-12-18T04:05:14;39.77;;;19.97;;
6626;SDS011;3349;49.830;8.748;2022-12-18T04:07:43;40.33;;;20.13;;
6626;SDS011;3349;49.830;8.748;2022-12-18T04:10:13;46.67;;;20.70;;
6626;SDS011;3349;49.830;8.748;2022-12-18T04:12:41;47.83;;;23.33;;
6626;SDS011;3349;49.830;8.748;2022-12-18T04:15:10;42.00;;;22.47;;
6626;SDS011;3349;49.830;8.748;2022-12-18T04:17:37;53.23;;;23.67;;
6626;SDS011;3349;49.830;8.748;2022-12-18T04:20:05;45.47;;;22.77;;
6626;SDS011;3349;49.830;8.748;2022-12-18T04:22:32;47.47;;;22.47;;
6626;SDS011;3349;49.830;8.748;2022-12-18T04:24:59;45.43;;;23.10;;
6626;SDS011;3349;49.830;8.748;2022-12-18T04:27:25;45.20;;;22.60;;
6626;SDS011;3349;49.830;8.748;2022-12-18T04:29:52;44.77;;;21.43;;
6626;SDS011;3349;49.830;8.748;2022-12-18T04:32:20;47.53;;;21.27;;
6626;SDS011;3349;49.830;8.748;2022-12-18T04:34:47;39.00;;;20.10;;
6626;SDS011;3349;49.830;8.748;2022-12-18T04:37:13;47.13;;;21.57;;
6626;SDS011;3349;49.830;8.748;2022-12-18T04:39:40;43.67;;;21.23;;
6626;SDS011;3349;49.830;8.748;2022-12-18T04:42:07;50.43;;;21.57;;
6626;SDS011;3349;49.830;8.748;2022-12-18T04:44:33;47.87;;;21.33;;
6626;SDS011;3349;49.830;8.748;2022-12-18T04:47:01;45.30;;;20.70;;
6626;SDS011;3349;49.830;8.748;2022-12-18T04:49:29;49.80;;;22.83;;
6626;SDS011;3349;49.830;8.748;2022-12-18T04:51:55;53.40;;;23.90;;
6626;SDS011;3349;49.830;8.748;2022-12-18T04:54:22;45.53;;;22.20;;
6626;SDS011;3349;49.830;8.748;2022-12-18T04:56:49;48.23;;;21.33;;
6626;SDS011;3349;49.830;8.748;2022-12-18T04:59:15;46.93;;;21.23;;
6626;SDS011;3349;49.830;8.748;2022-12-18T05:01:42;42.50;;;20.80;;
6626;SDS011;3349;49.830;8.748;2022-12-18T05:04:10;47.03;;;21.57;;
6626;SDS011;3349;49.830;8.748;2022-12-18T05:06:38;45.77;;;21.93;;
6626;SDS011;3349;49.830;8.748;2022-12-18T05:09:06;40.53;;;21.73;;
6626;SDS011;3349;49.830;8.748;2022-12-18T05:11:35;48.00;;;21.63;;
6626;SDS011;3349;49.830;8.748;2022-12-18T05:14:02;45.13;;;20.47;;
6626;SDS011;3349;49.830;8.748;2022-12-18T05:16:29;42.57;;;20.67;;
6626;SDS011;3349;49.830;8.748;2022-12-18T05:18:56;41.70;;;21.03;;
6626;SDS011;3349;49.830;8.748;2022-12-18T05:21:23;41.90;;;21.07;;
6626;SDS011;3349;49.830;8.748;2022-12-18T05:23:51;45.40;;;21.50;;
6626;SDS011;3349;49.830;8.748;2022-12-18T05:26:18;41.20;;;21.10;;
6626;SDS011;3349;49.830;8.748;2022-12-18T05:28:45;47.43;;;21.17;;
6626;SDS011;3349;49.830;8.748;2022-12-18T05:31:12;43.77;;;20.17;;
6626;SDS011;3349;49.830;8.748;2022-12-18T05:33:39;41.00;;;19.43;;
6626;SDS011;3349;49.830;8.748;2022-12-18T05:36:06;41.87;;;21.40;;
6626;SDS011;3349;49.830;8.748;2022-12-18T05:38:35;39.63;;;19.47;;
6626;SDS011;3349;49.830;8.748;2022-12-18T05:41:04;38.83;;;19.80;;
6626;SDS011;3349;49.830;8.748;2022-12-18T05:43:33;44.50;;;20.13;;
6626;SDS011;3349;49.830;8.748;2022-12-18T05:46:03;39.93;;;20.23;;
6626;SDS011;3349;49.830;8.748;2022-12-18T05:48:30;41.07;;;18.10;;
6626;SDS011;3349;49.830;8.748;2022-12-18T05:51:02;37.57;;;19.13;;
6626;SDS011;3349;49.830;8.748;2022-12-18T05:53:30;38.77;;;19.50;;
6626;SDS011;3349;49.830;8.748;2022-12-18T05:55:59;42.67;;;19.77;;
6626;SDS011;3349;49.830;8.748;2022-12-18T05:58:28;39.57;;;19.33;;
6626;SDS011;3349;49.830;8.748;2022-12-18T06:00:55;43.07;;;18.73;;
6626;SDS011;3349;49.830;8.748;2022-12-18T06:03:22;43.70;;;20.30;;
6626;SDS011;3349;49.830;8.748;2022-12-18T06:05:49;39.13;;;19.43;;
6626;SDS011;3349;49.830;8.748;2022-12-18T06:08:15;44.90;;;22.27;;
6626;SDS011;3349;49.830;8.748;2022-12-18T06:10:45;44.67;;;21.40;;
6626;SDS011;3349;49.830;8.748;2022-12-18T06:13:17;36.50;;;19.97;;
6626;SDS011;3349;49.830;8.748;2022-12-18T06:15:45;51.53;;;26.00;;
6626;SDS011;3349;49.830;8.748;2022-12-18T06:18:12;59.37;;;30.83;;
6626;SDS011;3349;49.830;8.748;2022-12-18T06:20:39;70.67;;;35.03;;
6626;SDS011;3349;49.830;8.748;2022-12-18T06:23:06;76.70;;;39.87;;
6626;SDS011;3349;49.830;8.748;2022-12-18T06:25:36;58.53;;;30.57;;
6626;SDS011;3349;49.830;8.748;2022-12-18T06:28:04;45.33;;;21.40;;
6626;SDS011;3349;49.830;8.748;2022-12-18T06:30:30;41.03;;;20.03;;
6626;SDS011;3349;49.830;8.748;2022-12-18T06:32:59;38.07;;;19.70;;
6626;SDS011;3349;49.830;8.748;2022-12-18T06:35:25;40.10;;;19.03;;
6626;SDS011;3349;49.830;8.748;2022-12-18T06:37:52;41.40;;;20.33;;
6626;SDS011;3349;49.830;8.748;2022-12-18T06:40:19;37.43;;;18.93;;
6626;SDS011;3349;49.830;8.748;2022-12-18T06:42:46;40.47;;;20.77;;
6626;SDS011;3349;49.830;8.748;2022-12-18T06:45:16;39.37;;;20.83;;
6626;SDS011;3349;49.830;8.748;2022-12-18T06:47:42;38.37;;;19.43;;
6626;SDS011;3349;49.830;8.748;2022-12-18T06:50:11;49.17;;;23.97;;
6626;SDS011;3349;49.830;8.748;2022-12-18T06:52:38;44.20;;;21.23;;
6626;SDS011;3349;49.830;8.748;2022-12-18T06:55:11;44.00;;;20.77;;
6626;SDS011;3349;49.830;8.748;2022-12-18T06:57:38;49.07;;;23.07;;
6626;SDS011;3349;49.830;8.748;2022-12-18T07:00:05;41.63;;;20.50;;
6626;SDS011;3349;49.830;8.748;2022-12-18T07:02:33;42.27;;;20.93;;
6626;SDS011;3349;49.830;8.748;2022-12-18T07:05:00;46.20;;;23.17;;
6626;SDS011;3349;49.830;8.748;2022-12-18T07:07:28;43.03;;;22.57;;
6626;SDS011;3349;49.830;8.748;2022-12-18T07:09:54;47.53;;;22.83;;
6626;SDS011;3349;49.830;8.748;2022-12-18T07:12:21;42.97;;;21.57;;
6626;SDS011;3349;49.830;8.748;2022-12-18T07:14:48;44.80;;;22.13;;
6626;SDS011;3349;49.830;8.748;2022-12-18T07:17:15;46.67;;;20.23;;
6626;SDS011;3349;49.830;8.748;2022-12-18T07:19:42;45.03;;;21.33;;
6626;SDS011;3349;49.830;8.748;2022-12-18T07:22:09;48.63;;;21.80;;
6626;SDS011;3349;49.830;8.748;2022-12-18T07:24:37;43.90;;;20.30;;
6626;SDS011;3349;49.830;8.748;2022-12-18T07:27:04;39.50;;;20.20;;
6626;SDS011;3349;49.830;8.748;2022-12-18T07:29:30;43.00;;;21.57;;
6626;SDS011;3349;49.830;8.748;2022-12-18T07:32:00;48.50;;;21.70;;
6626;SDS011;3349;49.830;8.748;2022-12-18T07:34:27;52.63;;;27.90;;
6626;SDS011;3349;49.830;8.748;2022-12-18T07:36:54;49.73;;;25.77;;
6626;SDS011;3349;49.830;8.748;2022-12-18T07:39:20;44.73;;;22.00;;
6626;SDS011;3349;49.830;8.748;2022-12-18T07:41:48;45.80;;;23.30;;
6626;SDS011;3349;49.830;8.748;2022-12-18T07:44:38;52.03;;;24.57;;
6626;SDS011;3349;49.830;8.748;2022-12-18T07:47:05;46.97;;;23.10;;
6626;SDS011;3349;49.830;8.748;2022-12-18T07:49:32;54.97;;;26.13;;
6626;SDS011;3349;49.830;8.748;2022-12-18T07:51:58;63.40;;;29.43;;
6626;SDS011;3349;49.830;8.748;2022-12-18T07:54:26;48.90;;;23.53;;
6626;SDS011;3349;49.830;8.748;2022-12-18T07:56:54;43.43;;;21.27;;
6626;SDS011;3349;49.830;8.748;2022-12-18T07:59:21;119.27;;;40.87;;
6626;SDS011;3349;49.830;8.748;2022-12-18T08:01:48;72.03;;;28.80;;
6626;SDS011;3349;49.830;8.748;2022-12-18T08:04:14;50.97;;;23.30;;
6626;SDS011;3349;49.830;8.748;2022-12-18T08:06:41;46.33;;;23.57;;
6626;SDS011;3349;49.830;8.748;2022-12-18T08:09:09;48.10;;;24.40;;
6626;SDS011;3349;49.830;8.748;2022-12-18T08:11:36;56.40;;;26.67;;
6626;SDS011;3349;49.830;8.748;2022-12-18T08:14:04;47.93;;;24.17;;
6626;SDS011;3349;49.830;8.748;2022-12-18T08:16:31;47.67;;;22.53;;
6626;SDS011;3349;49.830;8.748;2022-12-18T08:18:58;45.57;;;24.30;;
6626;SDS011;3349;49.830;8.748;2022-12-18T08:21:25;47.87;;;22.17;;
6626;SDS011;3349;49.830;8.748;2022-12-18T08:23:53;39.30;;;20.43;;
6626;SDS011;3349;49.830;8.748;2022-12-18T08:26:21;44.70;;;23.20;;
6626;SDS011;3349;49.830;8.748;2022-12-18T08:28:49;49.63;;;24.13;;
6626;SDS011;3349;49.830;8.748;2022-12-18T08:31:18;59.43;;;24.13;;
6626;SDS011;3349;49.830;8.748;2022-12-18T08:33:45;51.97;;;24.77;;
6626;SDS011;3349;49.830;8.748;2022-12-18T08:36:15;50.50;;;24.83;;
6626;SDS011;3349;49.830;8.748;2022-12-18T08:38:42;48.07;;;23.87;;
6626;SDS011;3349;49.830;8.748;2022-12-18T08:41:09;42.17;;;22.70;;
6626;SDS011;3349;49.830;8.748;2022-12-18T08:43:37;48.27;;;22.80;;
6626;SDS011;3349;49.830;8.748;2022-12-18T08:46:23;45.80;;;22.50;;
6626;SDS011;3349;49.830;8.748;2022-12-18T08:48:52;44.33;;;21.47;;
6626;SDS011;3349;49.830;8.748;2022-12-18T08:51:20;39.73;;;22.03;;
6626;SDS011;3349;49.830;8.748;2022-12-18T08:53:47;47.70;;;23.50;;
6626;SDS011;3349;49.830;8.748;2022-12-18T08:56:14;56.83;;;30.37;;
6626;SDS011;3349;49.830;8.748;2022-12-18T08:58:41;53.83;;;26.87;;
6626;SDS011;3349;49.830;8.748;2022-12-18T09:01:09;52.77;;;25.77;;
6626;SDS011;3349;49.830;8.748;2022-12-18T09:03:38;44.87;;;23.30;;
6626;SDS011;3349;49.830;8.748;2022-12-18T09:06:05;44.40;;;23.03;;
6626;SDS011;3349;49.830;8.748;2022-12-18T09:08:35;43.67;;;22.57;;
6626;SDS011;3349;49.830;8.748;2022-12-18T09:11:02;44.27;;;22.70;;
6626;SDS011;3349;49.830;8.748;2022-12-18T09:13:29;42.07;;;22.83;;
6626;SDS011;3349;49.830;8.748;2022-12-18T09:15:56;44.63;;;22.90;;
6626;SDS011;3349;49.830;8.748;2022-12-18T09:18:23;46.03;;;23.17;;
6626;SDS011;3349;49.830;8.748;2022-12-18T09:20:51;47.70;;;24.03;;
6626;SDS011;3349;49.830;8.748;2022-12-18T09:23:18;49.40;;;24.67;;
6626;SDS011;3349;49.830;8.748;2022-12-18T09:25:45;46.17;;;24.30;;
6626;SDS011;3349;49.830;8.748;2022-12-18T09:28:17;52.20;;;26.93;;
6626;SDS011;3349;49.830;8.748;2022-12-18T09:30:44;50.63;;;26.20;;
6626;SDS011;3349;49.830;8.748;2022-12-18T09:33:13;52.57;;;26.67;;
6626;SDS011;3349;49.830;8.748;2022-12-18T09:35:41;47.53;;;23.77;;
6626;SDS011;3349;49.830;8.748;2022-12-18T09:38:11;46.37;;;24.33;;
6626;SDS011;3349;49.830;8.748;2022-12-18T09:40:41;47.40;;;23.67;;
6626;SDS011;3349;49.830;8.748;2022-12-18T09:43:13;48.37;;;23.73;;
6626;SDS011;3349;49.830;8.748;2022-12-18T09:45:43;49.70;;;24.63;;
6626;SDS011;3349;49.830;8.748;2022-12-18T09:48:14;52.50;;;25.97;;
6626;SDS011;3349;49.830;8.748;2022-12-18T09:50:45;49.20;;;25.47;;
6626;SDS011;3349;49.830;8.748;2022-12-18T09:53:15;53.40;;;26.43;;
6626;SDS011;3349;49.830;8.748;2022-12-18T09:55:46;57.10;;;27.83;;
6626;SDS011;3349;49.830;8.748;2022-12-18T09:58:15;51.47;;;25.17;;
6626;SDS011;3349;49.830;8.748;2022-12-18T10:00:46;52.20;;;23.43;;
6626;SDS011;3349;49.830;8.748;2022-12-18T10:03:13;51.83;;;24.37;;
6626;SDS011;3349;49.830;8.748;2022-12-18T10:05:42;53.37;;;25.37;;
6626;SDS011;3349;49.830;8.748;2022-12-18T10:08:17;47.13;;;22.90;;
6626;SDS011;3349;49.830;8.748;2022-12-18T10:10:48;47.53;;;24.37;;
6626;SDS011;3349;49.830;8.748;2022-12-18T10:13:20;50.23;;;23.40;;
6626;SDS011;3349;49.830;8.748;2022-12-18T10:15:56;46.27;;;23.23;;
6626;SDS011;3349;49.830;8.748;2022-12-18T10:18:34;46.17;;;23.50;;
6626;SDS011;3349;49.830;8.748;2022-12-18T10:21:09;46.10;;;23.50;;
6626;SDS011;3349;49.830;8.748;2022-12-18T10:23:41;52.93;;;25.03;;
6626;SDS011;3349;49.830;8.748;2022-12-18T10:26:14;46.53;;;23.30;;
6626;SDS011;3349;49.830;8.748;2022-12-18T10:28:41;48.93;;;23.30;;
6626;SDS011;3349;49.830;8.748;2022-12-18T10:31:11;45.50;;;21.93;;
6626;SDS011;3349;49.830;8.748;2022-12-18T10:33:43;50.77;;;23.30;;
6626;SDS011;3349;49.830;8.748;2022-12-18T10:36:10;50.80;;;23.07;;
6626;SDS011;3349;49.830;8.748;2022-12-18T10:38:37;53.57;;;24.30;;
6626;SDS011;3349;49.830;8.748;2022-12-18T10:41:06;50.47;;;23.93;;
6626;SDS011;3349;49.830;8.748;2022-12-18T10:43:52;46.93;;;21.90;;
6626;SDS011;3349;49.830;8.748;2022-12-18T10:46:37;49.77;;;23.83;;
6626;SDS011;3349;49.830;8.748;2022-12-18T10:49:04;47.57;;;23.03;;
6626;SDS011;3349;49.830;8.748;2022-12-18T10:51:32;47.03;;;21.43;;
6626;SDS011;3349;49.830;8.748;2022-12-18T10:54:02;49.77;;;22.80;;
6626;SDS011;3349;49.830;8.748;2022-12-18T10:56:31;50.20;;;23.27;;
6626;SDS011;3349;49.830;8.748;2022-12-18T10:59:01;48.87;;;23.90;;
6626;SDS011;3349;49.830;8.748;2022-12-18T11:01:33;50.47;;;24.07;;
6626;SDS011;3349;49.830;8.748;2022-12-18T11:04:15;50.50;;;25.00;;
6626;SDS011;3349;49.830;8.748;2022-12-18T11:09:31;49.77;;;23.93;;
6626;SDS011;3349;49.830;8.748;2022-12-18T11:12:00;47.00;;;23.70;;
6626;SDS011;3349;49.830;8.748;2022-12-18T11:14:28;47.70;;;24.00;;
6626;SDS011;3349;49.830;8.748;2022-12-18T11:16:59;44.70;;;24.83;;
6626;SDS011;3349;49.830;8.748;2022-12-18T11:19:30;53.57;;;25.30;;
6626;SDS011;3349;49.830;8.748;2022-12-18T11:21:59;53.80;;;25.10;;
6626;SDS011;3349;49.830;8.748;2022-12-18T11:24:29;52.30;;;25.83;;
6626;SDS011;3349;49.830;8.748;2022-12-18T11:27:00;60.00;;;28.50;;
6626;SDS011;3349;49.830;8.748;2022-12-18T11:29:31;46.60;;;23.43;;
6626;SDS011;3349;49.830;8.748;2022-12-18T11:32:20;44.77;;;21.53;;
6626;SDS011;3349;49.830;8.748;2022-12-18T11:34:58;47.30;;;23.03;;
6626;SDS011;3349;49.830;8.748;2022-12-18T11:37:29;54.23;;;24.77;;
6626;SDS011;3349;49.830;8.748;2022-12-18T11:39:59;45.07;;;23.00;;
6626;SDS011;3349;49.830;8.748;2022-12-18T11:42:32;45.50;;;21.90;;
6626;SDS011;3349;49.830;8.748;2022-12-18T11:45:08;46.53;;;23.73;;
6626;SDS011;3349;49.830;8.748;2022-12-18T11:47:49;42.53;;;21.53;;
6626;SDS011;3349;49.830;8.748;2022-12-18T11:50:23;48.37;;;22.60;;
6626;SDS011;3349;49.830;8.748;2022-12-18T11:52:51;44.67;;;22.97;;
6626;SDS011;3349;49.830;8.748;2022-12-18T11:55:21;40.07;;;22.27;;
6626;SDS011;3349;49.830;8.748;2022-12-18T11:57:55;41.37;;;22.50;;
6626;SDS011;3349;49.830;8.748;2022-12-18T12:00:29;43.13;;;22.13;;
6626;SDS011;3349;49.830;8.748;2022-12-18T12:03:05;45.13;;;22.03;;
6626;SDS011;3349;49.830;8.748;2022-12-18T12:05:43;47.63;;;24.17;;
6626;SDS011;3349;49.830;8.748;2022-12-18T12:08:18;41.50;;;21.50;;
6626;SDS011;3349;49.830;8.748;2022-12-18T12:10:56;51.27;;;24.60;;
6626;SDS011;3349;49.830;8.748;2022-12-18T12:13:34;48.90;;;24.00;;
6626;SDS011;3349;49.830;8.748;2022-12-18T12:16:11;49.70;;;24.53;;
6626;SDS011;3349;49.830;8.748;2022-12-18T12:18:47;53.37;;;25.80;;
6626;SDS011;3349;49.830;8.748;2022-12-18T12:21:26;43.10;;;23.00;;
6626;SDS011;3349;49.830;8.748;2022-12-18T12:24:00;50.60;;;25.03;;
6626;SDS011;3349;49.830;8.748;2022-12-18T12:26:35;45.70;;;23.37;;
6626;SDS011;3349;49.830;8.748;2022-12-18T12:29:17;47.87;;;22.97;;
6626;SDS011;3349;49.830;8.748;2022-12-18T12:31:56;45.27;;;23.13;;
6626;SDS011;3349;49.830;8.748;2022-12-18T12:34:31;56.10;;;26.67;;
6626;SDS011;3349;49.830;8.748;2022-12-18T12:37:11;54.40;;;26.57;;
6626;SDS011;3349;49.830;8.748;2022-12-18T12:39:49;54.67;;;25.07;;
6626;SDS011;3349;49.830;8.748;2022-12-18T12:42:22;55.27;;;27.20;;
6626;SDS011;3349;49.830;8.748;2022-12-18T12:45:14;54.57;;;26.13;;
6626;SDS011;3349;49.830;8.748;2022-12-18T12:47:45;47.77;;;23.23;;
6626;SDS011;3349;49.830;8.748;2022-12-18T12:50:16;49.73;;;24.10;;
6626;SDS011;3349;49.830;8.748;2022-12-18T12:52:45;50.20;;;25.27;;
6626;SDS011;3349;49.830;8.748;2022-12-18T12:55:16;50.57;;;23.87;;
6626;SDS011;3349;49.830;8.748;2022-12-18T12:57:48;50.77;;;24.57;;
6626;SDS011;3349;49.830;8.748;2022-12-18T13:00:23;54.67;;;26.30;;
6626;SDS011;3349;49.830;8.748;2022-12-18T13:02:54;46.33;;;24.20;;
6626;SDS011;3349;49.830;8.748;2022-12-18T13:05:28;53.33;;;25.23;;
6626;SDS011;3349;49.830;8.748;2022-12-18T13:08:01;62.97;;;27.90;;
6626;SDS011;3349;49.830;8.748;2022-12-18T13:10:32;51.43;;;23.33;;
6626;SDS011;3349;49.830;8.748;2022-12-18T13:13:02;50.23;;;22.13;;
6626;SDS011;3349;49.830;8.748;2022-12-18T13:15:31;60.13;;;27.10;;
6626;SDS011;3349;49.830;8.748;2022-12-18T13:18:03;60.67;;;27.23;;
6626;SDS011;3349;49.830;8.748;2022-12-18T13:20:36;53.80;;;24.67;;
6626;SDS011;3349;49.830;8.748;2022-12-18T13:23:18;53.67;;;24.73;;
6626;SDS011;3349;49.830;8.748;2022-12-18T13:25:53;86.83;;;35.83;;
6626;SDS011;3349;49.830;8.748;2022-12-18T13:28:22;52.87;;;25.90;;
6626;SDS011;3349;49.830;8.748;2022-12-18T13:31:11;53.97;;;24.17;;
6626;SDS011;3349;49.830;8.748;2022-12-18T13:33:39;44.77;;;22.40;;
6626;SDS011;3349;49.830;8.748;2022-12-18T13:36:13;52.37;;;24.17;;
6626;SDS011;3349;49.830;8.748;2022-12-18T13:41:50;53.27;;;24.03;;
6626;SDS011;3349;49.830;8.748;2022-12-18T13:44:31;54.47;;;23.93;;
6626;SDS011;3349;49.830;8.748;2022-12-18T13:46:59;46.73;;;22.90;;
6626;SDS011;3349;49.830;8.748;2022-12-18T13:49:28;47.57;;;20.97;;
6626;SDS011;3349;49.830;8.748;2022-12-18T13:52:02;46.00;;;21.07;;
6626;SDS011;3349;49.830;8.748;2022-12-18T13:54:40;43.83;;;21.37;;
6626;SDS011;3349;49.830;8.748;2022-12-18T13:57:24;44.60;;;22.47;;
6626;SDS011;3349;49.830;8.748;2022-12-18T13:59:53;47.97;;;23.67;;
6626;SDS011;3349;49.830;8.748;2022-12-18T14:02:21;48.30;;;22.03;;
6626;SDS011;3349;49.830;8.748;2022-12-18T14:04:49;47.77;;;21.90;;
6626;SDS011;3349;49.830;8.748;2022-12-18T14:07:17;50.67;;;20.77;;
6626;SDS011;3349;49.830;8.748;2022-12-18T14:09:46;45.83;;;21.50;;
6626;SDS011;3349;49.830;8.748;2022-12-18T14:12:16;68.80;;;28.47;;
6626;SDS011;3349;49.830;8.748;2022-12-18T14:15:05;66.37;;;27.93;;
6626;SDS011;3349;49.830;8.748;2022-12-18T14:17:41;47.70;;;21.80;;
6626;SDS011;3349;49.830;8.748;2022-12-18T14:20:12;50.37;;;22.80;;
6626;SDS011;3349;49.830;8.748;2022-12-18T14:22:42;43.40;;;20.53;;
6626;SDS011;3349;49.830;8.748;2022-12-18T14:25:16;48.83;;;22.20;;
6626;SDS011;3349;49.830;8.748;2022-12-18T14:27:46;46.80;;;22.30;;
6626;SDS011;3349;49.830;8.748;2022-12-18T14:30:29;44.80;;;22.13;;
6626;SDS011;3349;49.830;8.748;2022-12-18T14:33:01;46.23;;;23.00;;
6626;SDS011;3349;49.830;8.748;2022-12-18T14:35:29;48.67;;;22.00;;
6626;SDS011;3349;49.830;8.748;2022-12-18T14:38:09;49.87;;;23.90;;
6626;SDS011;3349;49.830;8.748;2022-12-18T14:40:51;47.33;;;21.47;;
6626;SDS011;3349;49.830;8.748;2022-12-18T14:43:20;46.67;;;21.87;;
6626;SDS011;3349;49.830;8.748;2022-12-18T14:45:48;43.23;;;20.00;;
6626;SDS011;3349;49.830;8.748;2022-12-18T14:48:17;53.97;;;22.63;;
6626;SDS011;3349;49.830;8.748;2022-12-18T14:50:53;44.10;;;21.60;;
6626;SDS011;3349;49.830;8.748;2022-12-18T14:53:23;42.07;;;19.83;;
6626;SDS011;3349;49.830;8.748;2022-12-18T14:55:57;46.67;;;21.57;;
6626;SDS011;3349;49.830;8.748;2022-12-18T14:58:24;41.50;;;20.27;;
6626;SDS011;3349;49.830;8.748;2022-12-18T15:00:52;44.70;;;21.03;;
6626;SDS011;3349;49.830;8.748;2022-12-18T15:03:20;46.80;;;22.27;;
6626;SDS011;3349;49.830;8.748;2022-12-18T15:05:47;45.67;;;20.83;;
6626;SDS011;3349;49.830;8.748;2022-12-18T15:08:25;47.20;;;20.90;;
6626;SDS011;3349;49.830;8.748;2022-12-18T15:10:55;47.87;;;21.27;;
6626;SDS011;3349;49.830;8.748;2022-12-18T15:13:22;44.87;;;22.07;;